sensor_id;sensor_type;location;lat;lon;timestamp;pressure;altitude;pressure_sealevel;temperature;humidity
21545;BME280;10933;50.754;11.508;2023-04-26T00:02:13;98247.78;;;3.57;100.00
21545;BME280;10933;50.754;11.508;2023-04-26T00:04:40;98250.34;;;3.51;100.00
21545;BME280;10933;50.754;11.508;2023-04-26T00:07:06;98243.88;;;3.47;100.00
21545;BME280;10933;50.754;11.508;2023-04-26T00:09:33;98247.34;;;3.48;100.00
21545;BME280;10933;50.754;11.508;2023-04-26T00:11:59;98247.47;;;3.41;100.00
21545;BME280;10933;50.754;11.508;2023-04-26T00:14:26;98255.38;;;3.36;100.00
21545;BME280;10933;50.754;11.508;2023-04-26T00:16:52;98255.97;;;3.27;100.00
21545;BME280;10933;50.754;11.508;2023-04-26T00:19:18;98257.81;;;3.26;100.00
21545;BME280;10933;50.754;11.508;2023-04-26T00:21:46;98265.03;;;3.14;100.00
21545;BME280;10933;50.754;11.508;2023-04-26T00:24:12;98267.47;;;3.04;100.00
21545;BME280;10933;50.754;11.508;2023-04-26T00:26:38;98262.03;;;2.99;100.00
21545;BME280;10933;50.754;11.508;2023-04-26T00:29:04;98260.44;;;2.98;100.00
21545;BME280;10933;50.754;11.508;2023-04-26T00:31:30;98258.00;;;2.96;100.00
21545;BME280;10933;50.754;11.508;2023-04-26T00:33:56;98262.50;;;2.95;100.00
21545;BME280;10933;50.754;11.508;2023-04-26T00:36:23;98258.56;;;2.98;100.00
21545;BME280;10933;50.754;11.508;2023-04-26T00:38:49;98255.66;;;3.11;100.00
21545;BME280;10933;50.754;11.508;2023-04-26T00:41:15;98264.56;;;3.17;100.00
21545;BME280;10933;50.754;11.508;2023-04-26T00:43:41;98251.13;;;3.23;100.00
21545;BME280;10933;50.754;11.508;2023-04-26T00:46:08;98259.97;;;3.41;100.00
21545;BME280;10933;50.754;11.508;2023-04-26T00:48:36;98249.78;;;3.49;100.00
21545;BME280;10933;50.754;11.508;2023-04-26T00:51:03;98249.78;;;3.49;100.00
21545;BME280;10933;50.754;11.508;2023-04-26T00:53:31;98253.13;;;3.57;100.00
21545;BME280;10933;50.754;11.508;2023-04-26T00:55:58;98253.44;;;3.60;100.00
21545;BME280;10933;50.754;11.508;2023-04-26T00:58:25;98249.97;;;3.60;100.00
21545;BME280;10933;50.754;11.508;2023-04-26T01:00:51;98247.16;;;3.66;100.00
21545;BME280;10933;50.754;11.508;2023-04-26T01:03:17;98255.97;;;3.67;100.00
21545;BME280;10933;50.754;11.508;2023-04-26T01:05:44;98254.91;;;3.68;100.00
21545;BME280;10933;50.754;11.508;2023-04-26T01:08:10;98252.03;;;3.69;100.00
21545;BME280;10933;50.754;11.508;2023-04-26T01:10:38;98253.88;;;3.69;100.00
21545;BME280;10933;50.754;11.508;2023-04-26T01:13:05;98258.63;;;3.67;100.00
21545;BME280;10933;50.754;11.508;2023-04-26T01:15:31;98260.25;;;3.68;100.00
21545;BME280;10933;50.754;11.508;2023-04-26T01:17:58;98259.25;;;3.57;100.00
21545;BME280;10933;50.754;11.508;2023-04-26T01:20:24;98269.47;;;3.48;100.00
21545;BME280;10933;50.754;11.508;2023-04-26T01:22:53;98264.88;;;3.44;100.00
21545;BME280;10933;50.754;11.508;2023-04-26T01:25:20;98260.13;;;3.34;100.00
21545;BME280;10933;50.754;11.508;2023-04-26T01:27:46;98263.97;;;3.27;100.00
21545;BME280;10933;50.754;11.508;2023-04-26T01:30:12;98262.59;;;3.24;100.00
21545;BME280;10933;50.754;11.508;2023-04-26T01:32:38;98264.56;;;3.17;100.00
21545;BME280;10933;50.754;11.508;2023-04-26T01:35:05;98266.31;;;3.11;100.00
21545;BME280;10933;50.754;11.508;2023-04-26T01:37:32;98263.75;;;3.05;100.00
21545;BME280;10933;50.754;11.508;2023-04-26T01:39:58;98257.19;;;2.95;100.00
21545;BME280;10933;50.754;11.508;2023-04-26T01:42:24;98261.94;;;2.93;100.00
21545;BME280;10933;50.754;11.508;2023-04-26T01:44:50;98261.34;;;2.91;100.00
21545;BME280;10933;50.754;11.508;2023-04-26T01:47:16;98263.81;;;2.93;100.00
21545;BME280;10933;50.754;11.508;2023-04-26T01:49:42;98260.91;;;2.94;100.00
21545;BME280;10933;50.754;11.508;2023-04-26T01:52:08;98261.34;;;3.03;100.00
21545;BME280;10933;50.754;11.508;2023-04-26T01:54:35;98260.75;;;3.01;100.00
21545;BME280;10933;50.754;11.508;2023-04-26T01:57:01;98260.75;;;3.01;100.00
21545;BME280;10933;50.754;11.508;2023-04-26T01:59:27;98257.66;;;2.92;100.00
21545;BME280;10933;50.754;11.508;2023-04-26T02:01:53;98269.22;;;2.86;100.00
21545;BME280;10933;50.754;11.508;2023-04-26T02:04:19;98266.66;;;2.91;100.00
21545;BME280;10933;50.754;11.508;2023-04-26T02:06:46;98259.97;;;2.89;100.00
21545;BME280;10933;50.754;11.508;2023-04-26T02:09:12;98269.81;;;2.77;100.00
21545;BME280;10933;50.754;11.508;2023-04-26T02:11:38;98272.03;;;2.68;100.00
21545;BME280;10933;50.754;11.508;2023-04-26T02:14:04;98284.06;;;2.59;100.00
21545;BME280;10933;50.754;11.508;2023-04-26T02:16:30;98282.28;;;2.53;100.00
21545;BME280;10933;50.754;11.508;2023-04-26T02:18:57;98287.50;;;2.48;100.00
21545;BME280;10933;50.754;11.508;2023-04-26T02:21:24;98284.34;;;2.27;100.00
21545;BME280;10933;50.754;11.508;2023-04-26T02:23:52;98293.13;;;2.16;100.00
21545;BME280;10933;50.754;11.508;2023-04-26T02:26:18;98294.66;;;1.94;100.00
21545;BME280;10933;50.754;11.508;2023-04-26T02:28:44;98304.91;;;1.79;100.00
21545;BME280;10933;50.754;11.508;2023-04-26T02:31:10;98308.75;;;1.64;100.00
21545;BME280;10933;50.754;11.508;2023-04-26T02:33:36;98304.41;;;1.52;100.00
21545;BME280;10933;50.754;11.508;2023-04-26T02:36:03;98299.63;;;1.42;100.00
21545;BME280;10933;50.754;11.508;2023-04-26T02:38:35;98309.78;;;1.27;100.00
21545;BME280;10933;50.754;11.508;2023-04-26T02:41:02;98307.00;;;1.22;100.00
21545;BME280;10933;50.754;11.508;2023-04-26T02:43:28;98305.88;;;1.11;100.00
21545;BME280;10933;50.754;11.508;2023-04-26T02:45:55;98300.88;;;1.03;100.00
21545;BME280;10933;50.754;11.508;2023-04-26T02:48:23;98301.97;;;0.95;100.00
21545;BME280;10933;50.754;11.508;2023-04-26T02:50:49;98295.31;;;0.86;100.00
21545;BME280;10933;50.754;11.508;2023-04-26T02:53:15;98297.38;;;0.84;100.00
21545;BME280;10933;50.754;11.508;2023-04-26T02:55:42;98288.13;;;0.68;100.00
21545;BME280;10933;50.754;11.508;2023-04-26T02:58:08;98286.16;;;0.64;100.00
21545;BME280;10933;50.754;11.508;2023-04-26T03:00:35;98280.06;;;0.56;100.00
21545;BME280;10933;50.754;11.508;2023-04-26T03:03:01;98287.94;;;0.45;100.00
21545;BME280;10933;50.754;11.508;2023-04-26T03:05:28;98288.00;;;0.38;100.00
21545;BME280;10933;50.754;11.508;2023-04-26T03:07:54;98282.56;;;0.26;100.00
21545;BME280;10933;50.754;11.508;2023-04-26T03:10:20;98284.06;;;0.16;100.00
21545;BME280;10933;50.754;11.508;2023-04-26T03:12:46;98279.22;;;0.13;100.00
21545;BME280;10933;50.754;11.508;2023-04-26T03:15:12;98281.31;;;0.04;100.00
21545;BME280;10933;50.754;11.508;2023-04-26T03:17:41;98271.94;;;0.02;100.00
21545;BME280;10933;50.754;11.508;2023-04-26T03:20:08;98273.59;;;-0.04;100.00
21545;BME280;10933;50.754;11.508;2023-04-26T03:22:35;98262.63;;;-0.08;100.00
21545;BME280;10933;50.754;11.508;2023-04-26T03:25:02;98268.75;;;-0.14;100.00
21545;BME280;10933;50.754;11.508;2023-04-26T03:27:28;98262.25;;;-0.18;100.00
21545;BME280;10933;50.754;11.508;2023-04-26T03:29:54;98259.03;;;-0.26;100.00
21545;BME280;10933;50.754;11.508;2023-04-26T03:32:20;98256.03;;;-0.30;100.00
21545;BME280;10933;50.754;11.508;2023-04-26T03:34:47;98249.53;;;-0.34;100.00
21545;BME280;10933;50.754;11.508;2023-04-26T03:37:14;98246.09;;;-0.41;100.00
21545;BME280;10933;50.754;11.508;2023-04-26T03:39:41;98231.50;;;-0.50;100.00
21545;BME280;10933;50.754;11.508;2023-04-26T03:42:07;98212.16;;;-0.57;100.00
21545;BME280;10933;50.754;11.508;2023-04-26T03:44:33;98206.44;;;-0.54;100.00
21545;BME280;10933;50.754;11.508;2023-04-26T03:46:59;98193.66;;;-0.64;100.00
21545;BME280;10933;50.754;11.508;2023-04-26T03:49:25;98186.47;;;-0.50;100.00
21545;BME280;10933;50.754;11.508;2023-04-26T03:51:51;98179.19;;;-0.62;100.00
21545;BME280;10933;50.754;11.508;2023-04-26T03:54:17;98172.09;;;-0.68;100.00
21545;BME280;10933;50.754;11.508;2023-04-26T03:56:43;98164.72;;;-0.66;100.00
21545;BME280;10933;50.754;11.508;2023-04-26T03:59:09;98161.91;;;-0.71;100.00
21545;BME280;10933;50.754;11.508;2023-04-26T04:01:35;98148.53;;;-0.76;100.00
21545;BME280;10933;50.754;11.508;2023-04-26T04:04:02;98139.78;;;-0.83;100.00
21545;BME280;10933;50.754;11.508;2023-04-26T04:06:28;98129.19;;;-0.83;100.00
21545;BME280;10933;50.754;11.508;2023-04-26T04:08:54;98116.34;;;-0.79;100.00
21545;BME280;10933;50.754;11.508;2023-04-26T04:11:21;98101.69;;;-0.82;100.00
21545;BME280;10933;50.754;11.508;2023-04-26T04:13:47;98081.31;;;-0.81;100.00
21545;BME280;10933;50.754;11.508;2023-04-26T04:16:13;98065.81;;;-0.78;100.00
21545;BME280;10933;50.754;11.508;2023-04-26T04:18:40;98054.81;;;-0.75;100.00
21545;BME280;10933;50.754;11.508;2023-04-26T04:21:06;98038.50;;;-0.72;100.00
21545;BME280;10933;50.754;11.508;2023-04-26T04:23:32;98037.63;;;-0.66;100.00
21545;BME280;10933;50.754;11.508;2023-04-26T04:25:58;98007.41;;;-0.58;100.00
21545;BME280;10933;50.754;11.508;2023-04-26T04:28:24;97999.56;;;-0.46;100.00
21545;BME280;10933;50.754;11.508;2023-04-26T04:30:50;97983.09;;;-0.30;100.00
21545;BME280;10933;50.754;11.508;2023-04-26T04:33:16;97972.22;;;-0.22;100.00
21545;BME280;10933;50.754;11.508;2023-04-26T04:35:46;97957.22;;;-0.10;100.00
21545;BME280;10933;50.754;11.508;2023-04-26T04:38:13;97946.22;;;0.05;100.00
21545;BME280;10933;50.754;11.508;2023-04-26T04:40:39;97937.44;;;0.23;100.00
21545;BME280;10933;50.754;11.508;2023-04-26T04:43:06;97913.91;;;0.56;100.00
21545;BME280;10933;50.754;11.508;2023-04-26T04:45:40;97891.38;;;0.89;100.00
21545;BME280;10933;50.754;11.508;2023-04-26T04:48:06;97918.88;;;1.18;100.00
21545;BME280;10933;50.754;11.508;2023-04-26T04:50:33;97925.91;;;1.36;100.00
21545;BME280;10933;50.754;11.508;2023-04-26T04:53:00;97929.03;;;1.33;100.00
21545;BME280;10933;50.754;11.508;2023-04-26T04:55:27;97937.81;;;1.45;100.00
21545;BME280;10933;50.754;11.508;2023-04-26T04:57:53;97952.00;;;1.51;100.00
21545;BME280;10933;50.754;11.508;2023-04-26T05:00:37;97962.19;;;1.65;100.00
21545;BME280;10933;50.754;11.508;2023-04-26T05:03:04;97974.31;;;1.73;100.00
21545;BME280;10933;50.754;11.508;2023-04-26T05:05:30;97995.31;;;1.86;100.00
21545;BME280;10933;50.754;11.508;2023-04-26T05:07:56;98017.63;;;1.97;100.00
21545;BME280;10933;50.754;11.508;2023-04-26T05:10:23;98035.91;;;2.05;100.00
21545;BME280;10933;50.754;11.508;2023-04-26T05:12:49;98058.91;;;2.11;100.00
21545;BME280;10933;50.754;11.508;2023-04-26T05:15:15;98074.84;;;2.11;100.00
21545;BME280;10933;50.754;11.508;2023-04-26T05:17:41;98100.53;;;2.17;100.00
21545;BME280;10933;50.754;11.508;2023-04-26T05:20:08;98118.69;;;2.32;100.00
21545;BME280;10933;50.754;11.508;2023-04-26T05:22:35;98101.16;;;3.00;100.00
21545;BME280;10933;50.754;11.508;2023-04-26T05:25:02;98071.94;;;4.00;100.00
21545;BME280;10933;50.754;11.508;2023-04-26T05:27:29;98064.69;;;5.00;100.00
21545;BME280;10933;50.754;11.508;2023-04-26T05:29:55;98100.09;;;5.12;100.00
21545;BME280;10933;50.754;11.508;2023-04-26T05:32:21;98028.28;;;5.58;100.00
21545;BME280;10933;50.754;11.508;2023-04-26T05:34:47;97991.50;;;6.80;100.00
21545;BME280;10933;50.754;11.508;2023-04-26T05:37:14;97981.88;;;7.81;100.00
21545;BME280;10933;50.754;11.508;2023-04-26T05:39:40;98025.34;;;7.12;100.00
21545;BME280;10933;50.754;11.508;2023-04-26T05:42:06;98058.09;;;7.39;100.00
21545;BME280;10933;50.754;11.508;2023-04-26T05:44:32;98112.34;;;7.97;100.00
21545;BME280;10933;50.754;11.508;2023-04-26T05:46:58;98157.88;;;8.89;100.00
21545;BME280;10933;50.754;11.508;2023-04-26T05:49:24;98227.84;;;10.08;100.00
21545;BME280;10933;50.754;11.508;2023-04-26T05:51:51;98371.56;;;9.83;100.00
21545;BME280;10933;50.754;11.508;2023-04-26T05:54:17;98490.25;;;10.27;100.00
21545;BME280;10933;50.754;11.508;2023-04-26T05:56:43;98562.72;;;10.49;100.00
21545;BME280;10933;50.754;11.508;2023-04-26T05:59:09;98621.16;;;11.38;100.00
21545;BME280;10933;50.754;11.508;2023-04-26T06:01:36;98676.13;;;10.98;100.00
21545;BME280;10933;50.754;11.508;2023-04-26T06:04:03;98712.94;;;11.38;100.00
21545;BME280;10933;50.754;11.508;2023-04-26T06:06:30;98757.38;;;11.66;100.00
21545;BME280;10933;50.754;11.508;2023-04-26T06:08:56;98782.19;;;11.89;100.00
21545;BME280;10933;50.754;11.508;2023-04-26T06:11:23;98847.59;;;11.75;100.00
21545;BME280;10933;50.754;11.508;2023-04-26T06:13:49;98869.81;;;12.32;100.00
21545;BME280;10933;50.754;11.508;2023-04-26T06:16:15;98941.66;;;11.17;100.00
21545;BME280;10933;50.754;11.508;2023-04-26T06:18:41;98927.09;;;11.08;100.00
21545;BME280;10933;50.754;11.508;2023-04-26T06:21:07;98933.47;;;12.09;100.00
21545;BME280;10933;50.754;11.508;2023-04-26T06:23:33;98919.19;;;11.98;100.00
21545;BME280;10933;50.754;11.508;2023-04-26T06:25:59;98941.59;;;12.09;100.00
21545;BME280;10933;50.754;11.508;2023-04-26T06:28:26;98984.75;;;12.34;100.00
21545;BME280;10933;50.754;11.508;2023-04-26T06:30:52;99007.56;;;11.47;100.00
21545;BME280;10933;50.754;11.508;2023-04-26T06:33:18;98982.16;;;11.17;100.00
21545;BME280;10933;50.754;11.508;2023-04-26T06:35:44;98957.28;;;10.12;100.00
21545;BME280;10933;50.754;11.508;2023-04-26T06:38:11;98933.84;;;9.65;100.00
21545;BME280;10933;50.754;11.508;2023-04-26T06:40:40;98901.16;;;11.38;100.00
21545;BME280;10933;50.754;11.508;2023-04-26T06:43:06;98956.69;;;9.21;100.00
21545;BME280;10933;50.754;11.508;2023-04-26T06:45:33;98888.47;;;9.05;100.00
21545;BME280;10933;50.754;11.508;2023-04-26T06:47:59;98853.84;;;8.81;100.00
21545;BME280;10933;50.754;11.508;2023-04-26T06:50:26;98817.03;;;8.01;100.00
21545;BME280;10933;50.754;11.508;2023-04-26T06:52:52;98757.22;;;9.12;100.00
21545;BME280;10933;50.754;11.508;2023-04-26T06:55:18;98839.53;;;8.44;100.00
21545;BME280;10933;50.754;11.508;2023-04-26T06:57:44;98835.38;;;8.58;100.00
21545;BME280;10933;50.754;11.508;2023-04-26T07:00:11;98843.41;;;11.13;100.00
21545;BME280;10933;50.754;11.508;2023-04-26T07:02:37;98938.66;;;10.73;100.00
21545;BME280;10933;50.754;11.508;2023-04-26T07:05:04;98992.66;;;9.79;100.00
21545;BME280;10933;50.754;11.508;2023-04-26T07:07:30;99029.03;;;8.90;100.00
21545;BME280;10933;50.754;11.508;2023-04-26T07:09:56;99012.63;;;8.43;100.00
21545;BME280;10933;50.754;11.508;2023-04-26T07:12:25;98980.72;;;10.69;100.00
21545;BME280;10933;50.754;11.508;2023-04-26T07:14:52;99115.03;;;12.72;100.00
21545;BME280;10933;50.754;11.508;2023-04-26T07:17:18;99336.31;;;13.67;100.00
21545;BME280;10933;50.754;11.508;2023-04-26T07:19:44;99507.81;;;14.88;100.00
21545;BME280;10933;50.754;11.508;2023-04-26T07:22:10;99571.72;;;14.70;100.00
21545;BME280;10933;50.754;11.508;2023-04-26T07:24:39;99580.81;;;13.99;100.00
21545;BME280;10933;50.754;11.508;2023-04-26T07:27:05;99598.66;;;14.46;100.00
21545;BME280;10933;50.754;11.508;2023-04-26T07:29:31;99618.22;;;15.67;100.00
21545;BME280;10933;50.754;11.508;2023-04-26T07:32:00;99665.13;;;16.27;100.00
21545;BME280;10933;50.754;11.508;2023-04-26T07:34:27;99674.00;;;16.04;100.00
21545;BME280;10933;50.754;11.508;2023-04-26T07:36:53;99675.06;;;15.69;100.00
21545;BME280;10933;50.754;11.508;2023-04-26T07:39:19;99681.34;;;15.64;99.35
21545;BME280;10933;50.754;11.508;2023-04-26T07:41:45;99685.41;;;16.06;95.17
21545;BME280;10933;50.754;11.508;2023-04-26T07:44:11;99680.13;;;17.49;95.23
21545;BME280;10933;50.754;11.508;2023-04-26T07:46:38;99716.28;;;17.36;77.79
21545;BME280;10933;50.754;11.508;2023-04-26T07:49:04;99712.13;;;17.62;88.18
21545;BME280;10933;50.754;11.508;2023-04-26T07:51:30;99701.16;;;16.77;79.93
21545;BME280;10933;50.754;11.508;2023-04-26T07:53:56;99715.00;;;16.52;79.03
21545;BME280;10933;50.754;11.508;2023-04-26T07:56:23;99710.44;;;17.24;81.64
21545;BME280;10933;50.754;11.508;2023-04-26T07:58:49;99725.66;;;18.80;66.52
21545;BME280;10933;50.754;11.508;2023-04-26T08:01:15;99725.50;;;17.40;76.28
21545;BME280;10933;50.754;11.508;2023-04-26T08:03:41;99691.81;;;13.33;98.83
21545;BME280;10933;50.754;11.508;2023-04-26T08:06:08;99677.31;;;11.37;100.00
21545;BME280;10933;50.754;11.508;2023-04-26T08:08:34;99641.81;;;10.24;100.00
21545;BME280;10933;50.754;11.508;2023-04-26T08:11:07;99618.19;;;11.40;100.00
21545;BME280;10933;50.754;11.508;2023-04-26T08:13:35;99647.47;;;15.85;100.00
21545;BME280;10933;50.754;11.508;2023-04-26T08:16:01;99704.50;;;18.02;84.16
21545;BME280;10933;50.754;11.508;2023-04-26T08:18:27;99725.84;;;17.57;76.00
21545;BME280;10933;50.754;11.508;2023-04-26T08:20:53;99713.53;;;18.35;73.71
21545;BME280;10933;50.754;11.508;2023-04-26T08:23:20;99726.44;;;17.54;64.42
21545;BME280;10933;50.754;11.508;2023-04-26T08:25:47;99737.31;;;17.78;66.07
21545;BME280;10933;50.754;11.508;2023-04-26T08:28:14;99732.88;;;13.10;78.70
21545;BME280;10933;50.754;11.508;2023-04-26T08:30:42;99729.78;;;11.90;93.82
21545;BME280;10933;50.754;11.508;2023-04-26T08:33:11;99714.50;;;14.00;100.00
21545;BME280;10933;50.754;11.508;2023-04-26T08:35:37;99722.25;;;17.14;81.62
21545;BME280;10933;50.754;11.508;2023-04-26T08:38:03;99726.50;;;15.50;86.40
21545;BME280;10933;50.754;11.508;2023-04-26T08:40:30;99718.59;;;12.35;95.57
21545;BME280;10933;50.754;11.508;2023-04-26T08:42:56;99719.72;;;10.93;100.00
21545;BME280;10933;50.754;11.508;2023-04-26T08:45:23;99700.34;;;9.95;100.00
21545;BME280;10933;50.754;11.508;2023-04-26T08:47:57;99700.00;;;13.38;100.00
21545;BME280;10933;50.754;11.508;2023-04-26T08:50:27;99722.94;;;16.09;83.48
21545;BME280;10933;50.754;11.508;2023-04-26T08:52:55;99750.91;;;17.59;66.89
21545;BME280;10933;50.754;11.508;2023-04-26T08:55:22;99749.53;;;14.72;67.50
21545;BME280;10933;50.754;11.508;2023-04-26T08:57:49;99739.97;;;12.36;73.59
21545;BME280;10933;50.754;11.508;2023-04-26T09:00:19;99733.38;;;12.27;93.19
21545;BME280;10933;50.754;11.508;2023-04-26T09:02:49;99733.78;;;15.00;73.05
21545;BME280;10933;50.754;11.508;2023-04-26T09:05:18;99723.34;;;15.27;68.71
21545;BME280;10933;50.754;11.508;2023-04-26T09:07:56;99733.25;;;14.32;72.67
21545;BME280;10933;50.754;11.508;2023-04-26T09:10:29;99727.47;;;12.67;81.59
21545;BME280;10933;50.754;11.508;2023-04-26T09:12:57;99729.38;;;11.54;94.60
21545;BME280;10933;50.754;11.508;2023-04-26T09:15:27;99710.28;;;11.39;100.00
21545;BME280;10933;50.754;11.508;2023-04-26T09:17:53;99720.94;;;12.58;97.71
21545;BME280;10933;50.754;11.508;2023-04-26T09:20:27;99725.19;;;12.17;98.17
21545;BME280;10933;50.754;11.508;2023-04-26T09:23:04;99716.88;;;13.61;91.77
21545;BME280;10933;50.754;11.508;2023-04-26T09:25:32;99724.81;;;15.69;86.14
21545;BME280;10933;50.754;11.508;2023-04-26T09:27:59;99721.28;;;14.73;86.26
21545;BME280;10933;50.754;11.508;2023-04-26T09:30:26;99725.19;;;17.23;54.94
21545;BME280;10933;50.754;11.508;2023-04-26T09:32:56;99713.22;;;15.98;72.77
21545;BME280;10933;50.754;11.508;2023-04-26T09:35:30;99723.47;;;14.31;67.68
21545;BME280;10933;50.754;11.508;2023-04-26T09:38:03;99721.69;;;16.93;59.89
21545;BME280;10933;50.754;11.508;2023-04-26T09:40:31;99718.47;;;18.98;52.56
21545;BME280;10933;50.754;11.508;2023-04-26T09:43:02;99734.78;;;16.28;54.72
21545;BME280;10933;50.754;11.508;2023-04-26T09:45:30;99720.66;;;13.70;74.01
21545;BME280;10933;50.754;11.508;2023-04-26T09:48:13;99724.72;;;12.25;87.32
21545;BME280;10933;50.754;11.508;2023-04-26T09:50:41;99711.13;;;11.66;89.67
21545;BME280;10933;50.754;11.508;2023-04-26T09:53:09;99716.59;;;10.84;98.61
21545;BME280;10933;50.754;11.508;2023-04-26T09:55:36;99712.88;;;10.18;100.00
21545;BME280;10933;50.754;11.508;2023-04-26T09:58:09;99705.16;;;10.10;100.00
21545;BME280;10933;50.754;11.508;2023-04-26T10:00:37;99705.75;;;10.62;100.00
21545;BME280;10933;50.754;11.508;2023-04-26T10:03:06;99695.00;;;12.30;100.00
21545;BME280;10933;50.754;11.508;2023-04-26T10:05:33;99703.41;;;14.37;100.00
21545;BME280;10933;50.754;11.508;2023-04-26T10:07:59;99714.66;;;13.52;93.40
21545;BME280;10933;50.754;11.508;2023-04-26T10:10:26;99708.25;;;12.64;100.00
21545;BME280;10933;50.754;11.508;2023-04-26T10:12:52;99716.19;;;13.23;89.04
21545;BME280;10933;50.754;11.508;2023-04-26T10:15:18;99719.00;;;13.48;94.14
21545;BME280;10933;50.754;11.508;2023-04-26T10:17:45;99722.31;;;13.76;80.10
21545;BME280;10933;50.754;11.508;2023-04-26T10:20:13;99719.31;;;13.05;82.05
21545;BME280;10933;50.754;11.508;2023-04-26T10:22:45;99716.06;;;13.03;92.35
21545;BME280;10933;50.754;11.508;2023-04-26T10:25:13;99719.09;;;12.00;88.86
21545;BME280;10933;50.754;11.508;2023-04-26T10:27:49;99712.47;;;11.42;100.00
21545;BME280;10933;50.754;11.508;2023-04-26T10:30:17;99711.25;;;10.50;100.00
21545;BME280;10933;50.754;11.508;2023-04-26T10:35:26;99689.69;;;10.34;100.00
21545;BME280;10933;50.754;11.508;2023-04-26T10:40:36;99688.75;;;10.11;100.00
21545;BME280;10933;50.754;11.508;2023-04-26T10:45:35;99678.75;;;12.25;100.00
21545;BME280;10933;50.754;11.508;2023-04-26T10:59:10;99715.50;;;15.16;56.10
21545;BME280;10933;50.754;11.508;2023-04-26T11:01:38;99693.63;;;12.65;78.86
21545;BME280;10933;50.754;11.508;2023-04-26T11:04:07;99692.00;;;12.64;88.37
21545;BME280;10933;50.754;11.508;2023-04-26T11:06:53;99682.97;;;11.57;93.60
21545;BME280;10933;50.754;11.508;2023-04-26T11:09:39;99695.09;;;11.33;94.75
21545;BME280;10933;50.754;11.508;2023-04-26T11:12:13;99693.38;;;10.83;97.20
21545;BME280;10933;50.754;11.508;2023-04-26T11:14:45;99682.16;;;11.13;99.27
21545;BME280;10933;50.754;11.508;2023-04-26T11:17:11;99685.25;;;11.22;100.00
21545;BME280;10933;50.754;11.508;2023-04-26T11:19:39;99674.66;;;11.91;99.14
21545;BME280;10933;50.754;11.508;2023-04-26T11:22:07;99687.09;;;11.43;100.00
21545;BME280;10933;50.754;11.508;2023-04-26T11:24:34;99683.53;;;12.55;96.70
21545;BME280;10933;50.754;11.508;2023-04-26T11:27:10;99691.88;;;13.38;80.38
21545;BME280;10933;50.754;11.508;2023-04-26T11:29:36;99686.69;;;15.20;68.60
21545;BME280;10933;50.754;11.508;2023-04-26T11:32:03;99702.06;;;15.45;58.80
21545;BME280;10933;50.754;11.508;2023-04-26T11:34:36;99695.53;;;14.56;55.97
21545;BME280;10933;50.754;11.508;2023-04-26T11:37:07;99689.22;;;13.64;69.94
21545;BME280;10933;50.754;11.508;2023-04-26T11:39:34;99684.75;;;12.32;77.42
21545;BME280;10933;50.754;11.508;2023-04-26T11:42:08;99681.00;;;12.38;85.36
21545;BME280;10933;50.754;11.508;2023-04-26T11:44:35;99689.66;;;13.30;84.36
21545;BME280;10933;50.754;11.508;2023-04-26T11:47:02;99683.25;;;13.67;72.49
21545;BME280;10933;50.754;11.508;2023-04-26T11:49:29;99680.03;;;13.95;74.38
21545;BME280;10933;50.754;11.508;2023-04-26T11:51:56;99677.38;;;14.26;77.04
21545;BME280;10933;50.754;11.508;2023-04-26T11:54:30;99683.31;;;14.33;75.01
21545;BME280;10933;50.754;11.508;2023-04-26T11:56:57;99682.91;;;13.38;76.96
21545;BME280;10933;50.754;11.508;2023-04-26T11:59:27;99672.41;;;14.89;75.24
21545;BME280;10933;50.754;11.508;2023-04-26T12:01:58;99682.75;;;13.95;74.32
21545;BME280;10933;50.754;11.508;2023-04-26T12:04:29;99680.06;;;13.85;91.61
21545;BME280;10933;50.754;11.508;2023-04-26T12:06:56;99670.75;;;13.55;74.60
21545;BME280;10933;50.754;11.508;2023-04-26T12:09:31;99680.78;;;12.87;84.38
21545;BME280;10933;50.754;11.508;2023-04-26T12:12:01;99690.28;;;12.95;81.73
21545;BME280;10933;50.754;11.508;2023-04-26T12:14:32;99682.59;;;12.34;73.88
21545;BME280;10933;50.754;11.508;2023-04-26T12:16:59;99680.41;;;12.31;87.35
21545;BME280;10933;50.754;11.508;2023-04-26T12:19:26;99678.13;;;12.18;94.29
21545;BME280;10933;50.754;11.508;2023-04-26T12:21:52;99674.16;;;12.31;82.97
21545;BME280;10933;50.754;11.508;2023-04-26T12:24:26;99671.78;;;12.34;88.48
21545;BME280;10933;50.754;11.508;2023-04-26T12:26:58;99670.28;;;12.54;85.45
21545;BME280;10933;50.754;11.508;2023-04-26T12:29:24;99668.72;;;12.63;85.04
21545;BME280;10933;50.754;11.508;2023-04-26T12:31:50;99677.91;;;13.09;81.79
21545;BME280;10933;50.754;11.508;2023-04-26T12:34:16;99669.69;;;13.57;86.89
21545;BME280;10933;50.754;11.508;2023-04-26T12:36:43;99670.84;;;14.42;76.35
21545;BME280;10933;50.754;11.508;2023-04-26T12:39:10;99673.44;;;13.40;80.10
21545;BME280;10933;50.754;11.508;2023-04-26T12:41:38;99674.63;;;13.90;82.79
21545;BME280;10933;50.754;11.508;2023-04-26T12:44:06;99675.50;;;13.18;79.45
21545;BME280;10933;50.754;11.508;2023-04-26T12:46:33;99672.66;;;12.87;86.32
21545;BME280;10933;50.754;11.508;2023-04-26T12:48:59;99671.44;;;12.63;82.37
21545;BME280;10933;50.754;11.508;2023-04-26T12:51:25;99674.19;;;12.73;83.96
21545;BME280;10933;50.754;11.508;2023-04-26T12:53:51;99670.00;;;12.50;85.85
21545;BME280;10933;50.754;11.508;2023-04-26T12:56:18;99666.28;;;12.61;96.11
21545;BME280;10933;50.754;11.508;2023-04-26T12:58:44;99670.19;;;12.06;83.85
21545;BME280;10933;50.754;11.508;2023-04-26T13:01:11;99672.91;;;11.79;86.10
21545;BME280;10933;50.754;11.508;2023-04-26T13:03:38;99664.75;;;12.33;90.56
21545;BME280;10933;50.754;11.508;2023-04-26T13:06:05;99670.59;;;12.20;84.19
21545;BME280;10933;50.754;11.508;2023-04-26T13:08:31;99666.63;;;12.01;84.24